sensor_id;sensor_type;location;lat;lon;timestamp;P1;durP1;ratioP1;P2;durP2;ratioP2
71975;SDS011;60680;52.182;5.398;2022-11-23T00:00:04;13.15;;;6.00;;
71975;SDS011;60680;52.182;5.398;2022-11-23T00:02:31;13.88;;;6.45;;
71975;SDS011;60680;52.182;5.398;2022-11-23T00:04:58;12.07;;;6.55;;
71975;SDS011;60680;52.182;5.398;2022-11-23T00:07:24;13.40;;;5.85;;
71975;SDS011;60680;52.182;5.398;2022-11-23T00:09:50;12.63;;;6.03;;
71975;SDS011;60680;52.182;5.398;2022-11-23T00:12:17;13.40;;;6.03;;
71975;SDS011;60680;52.182;5.398;2022-11-23T00:14:43;13.20;;;6.07;;
71975;SDS011;60680;52.182;5.398;2022-11-23T00:17:09;14.25;;;6.88;;
71975;SDS011;60680;52.182;5.398;2022-11-23T00:19:36;16.55;;;7.32;;
71975;SDS011;60680;52.182;5.398;2022-11-23T00:22:02;17.73;;;6.90;;
71975;SDS011;60680;52.182;5.398;2022-11-23T00:24:29;13.13;;;6.85;;
71975;SDS011;60680;52.182;5.398;2022-11-23T00:26:55;14.52;;;6.95;;
71975;SDS011;60680;52.182;5.398;2022-11-23T00:29:22;19.02;;;7.18;;
71975;SDS011;60680;52.182;5.398;2022-11-23T00:31:48;15.65;;;7.03;;
71975;SDS011;60680;52.182;5.398;2022-11-23T00:34:15;14.63;;;7.50;;
71975;SDS011;60680;52.182;5.398;2022-11-23T00:36:41;15.30;;;8.38;;
71975;SDS011;60680;52.182;5.398;2022-11-23T00:39:07;17.48;;;7.85;;
71975;SDS011;60680;52.182;5.398;2022-11-23T00:41:34;14.93;;;7.82;;
71975;SDS011;60680;52.182;5.398;2022-11-23T00:44:01;18.55;;;8.73;;
71975;SDS011;60680;52.182;5.398;2022-11-23T00:46:27;16.80;;;7.50;;
71975;SDS011;60680;52.182;5.398;2022-11-23T00:48:54;19.67;;;8.40;;
71975;SDS011;60680;52.182;5.398;2022-11-23T00:51:23;19.70;;;8.20;;
71975;SDS011;60680;52.182;5.398;2022-11-23T00:53:52;19.58;;;8.25;;
71975;SDS011;60680;52.182;5.398;2022-11-23T00:56:19;19.65;;;8.45;;
71975;SDS011;60680;52.182;5.398;2022-11-23T00:58:50;18.37;;;7.23;;
71975;SDS011;60680;52.182;5.398;2022-11-23T01:01:19;23.83;;;8.70;;
71975;SDS011;60680;52.182;5.398;2022-11-23T01:03:48;20.85;;;8.82;;
71975;SDS011;60680;52.182;5.398;2022-11-23T01:06:18;21.48;;;9.23;;
71975;SDS011;60680;52.182;5.398;2022-11-23T01:08:53;23.13;;;9.02;;
71975;SDS011;60680;52.182;5.398;2022-11-23T01:11:22;18.40;;;8.17;;
71975;SDS011;60680;52.182;5.398;2022-11-23T01:13:50;21.02;;;9.05;;
71975;SDS011;60680;52.182;5.398;2022-11-23T01:16:18;27.83;;;9.65;;
71975;SDS011;60680;52.182;5.398;2022-11-23T01:18:56;20.70;;;8.90;;
71975;SDS011;60680;52.182;5.398;2022-11-23T01:21:25;19.02;;;8.18;;
71975;SDS011;60680;52.182;5.398;2022-11-23T01:23:53;23.23;;;9.13;;
71975;SDS011;60680;52.182;5.398;2022-11-23T01:26:19;22.25;;;8.63;;
71975;SDS011;60680;52.182;5.398;2022-11-23T01:28:46;21.33;;;8.85;;
71975;SDS011;60680;52.182;5.398;2022-11-23T01:31:14;23.75;;;8.75;;
71975;SDS011;60680;52.182;5.398;2022-11-23T01:33:42;22.83;;;8.70;;
71975;SDS011;60680;52.182;5.398;2022-11-23T01:36:12;18.30;;;8.17;;
71975;SDS011;60680;52.182;5.398;2022-11-23T01:38:41;15.52;;;7.75;;
71975;SDS011;60680;52.182;5.398;2022-11-23T01:41:10;18.70;;;8.45;;
71975;SDS011;60680;52.182;5.398;2022-11-23T01:43:39;17.95;;;8.43;;
71975;SDS011;60680;52.182;5.398;2022-11-23T01:46:06;26.00;;;9.13;;
71975;SDS011;60680;52.182;5.398;2022-11-23T01:48:37;19.50;;;8.20;;
71975;SDS011;60680;52.182;5.398;2022-11-23T01:51:10;19.30;;;7.97;;
71975;SDS011;60680;52.182;5.398;2022-11-23T01:53:40;19.88;;;8.60;;
71975;SDS011;60680;52.182;5.398;2022-11-23T01:56:09;20.65;;;8.35;;
71975;SDS011;60680;52.182;5.398;2022-11-23T01:58:41;18.70;;;7.82;;
71975;SDS011;60680;52.182;5.398;2022-11-23T02:01:12;20.27;;;7.57;;
71975;SDS011;60680;52.182;5.398;2022-11-23T02:03:39;18.20;;;8.07;;
71975;SDS011;60680;52.182;5.398;2022-11-23T02:06:12;20.60;;;8.32;;
71975;SDS011;60680;52.182;5.398;2022-11-23T02:08:42;18.70;;;7.63;;
71975;SDS011;60680;52.182;5.398;2022-11-23T02:11:09;18.38;;;7.72;;
71975;SDS011;60680;52.182;5.398;2022-11-23T02:13:37;20.77;;;7.50;;
71975;SDS011;60680;52.182;5.398;2022-11-23T02:16:04;18.60;;;7.43;;
71975;SDS011;60680;52.182;5.398;2022-11-23T02:18:31;19.20;;;7.38;;
71975;SDS011;60680;52.182;5.398;2022-11-23T02:21:00;14.52;;;7.07;;
71975;SDS011;60680;52.182;5.398;2022-11-23T02:23:33;17.33;;;6.35;;
71975;SDS011;60680;52.182;5.398;2022-11-23T02:26:14;13.33;;;6.73;;
71975;SDS011;60680;52.182;5.398;2022-11-23T02:31:34;15.65;;;6.40;;
71975;SDS011;60680;52.182;5.398;2022-11-23T02:34:07;12.73;;;5.90;;
71975;SDS011;60680;52.182;5.398;2022-11-23T02:36:38;12.32;;;5.25;;
71975;SDS011;60680;52.182;5.398;2022-11-23T02:39:07;12.30;;;4.93;;
71975;SDS011;60680;52.182;5.398;2022-11-23T02:41:43;12.60;;;5.15;;
71975;SDS011;60680;52.182;5.398;2022-11-23T02:47:14;13.77;;;5.10;;
71975;SDS011;60680;52.182;5.398;2022-11-23T02:49:41;11.35;;;5.07;;
71975;SDS011;60680;52.182;5.398;2022-11-23T02:52:10;14.30;;;5.50;;
71975;SDS011;60680;52.182;5.398;2022-11-23T02:54:37;16.73;;;5.30;;
71975;SDS011;60680;52.182;5.398;2022-11-23T02:57:04;9.65;;;5.13;;
71975;SDS011;60680;52.182;5.398;2022-11-23T02:59:31;12.18;;;4.80;;
71975;SDS011;60680;52.182;5.398;2022-11-23T03:01:59;13.50;;;5.13;;
71975;SDS011;60680;52.182;5.398;2022-11-23T03:04:27;15.50;;;5.27;;
71975;SDS011;60680;52.182;5.398;2022-11-23T03:06:53;12.20;;;5.38;;
71975;SDS011;60680;52.182;5.398;2022-11-23T03:09:20;15.65;;;5.53;;
71975;SDS011;60680;52.182;5.398;2022-11-23T03:11:47;12.02;;;4.90;;
71975;SDS011;60680;52.182;5.398;2022-11-23T03:14:13;12.57;;;5.20;;
71975;SDS011;60680;52.182;5.398;2022-11-23T03:16:41;11.30;;;5.00;;
71975;SDS011;60680;52.182;5.398;2022-11-23T03:19:07;12.25;;;5.10;;
71975;SDS011;60680;52.182;5.398;2022-11-23T03:21:34;11.98;;;5.50;;
71975;SDS011;60680;52.182;5.398;2022-11-23T03:24:01;12.52;;;5.75;;
71975;SDS011;60680;52.182;5.398;2022-11-23T03:26:28;9.85;;;4.85;;
71975;SDS011;60680;52.182;5.398;2022-11-23T03:28:54;10.50;;;4.70;;
71975;SDS011;60680;52.182;5.398;2022-11-23T03:31:21;9.38;;;4.65;;
71975;SDS011;60680;52.182;5.398;2022-11-23T03:33:47;15.45;;;4.57;;
71975;SDS011;60680;52.182;5.398;2022-11-23T03:36:14;12.57;;;4.25;;
71975;SDS011;60680;52.182;5.398;2022-11-23T03:38:40;15.65;;;4.47;;
71975;SDS011;60680;52.182;5.398;2022-11-23T03:41:06;10.87;;;4.20;;
71975;SDS011;60680;52.182;5.398;2022-11-23T03:43:33;10.18;;;4.00;;
71975;SDS011;60680;52.182;5.398;2022-11-23T03:45:59;9.35;;;4.38;;
71975;SDS011;60680;52.182;5.398;2022-11-23T03:48:26;11.15;;;3.83;;
71975;SDS011;60680;52.182;5.398;2022-11-23T03:50:52;9.20;;;3.80;;
71975;SDS011;60680;52.182;5.398;2022-11-23T03:53:19;10.10;;;3.67;;
71975;SDS011;60680;52.182;5.398;2022-11-23T03:55:45;10.80;;;4.10;;
71975;SDS011;60680;52.182;5.398;2022-11-23T03:58:12;11.48;;;4.32;;
71975;SDS011;60680;52.182;5.398;2022-11-23T04:00:38;10.20;;;4.10;;
71975;SDS011;60680;52.182;5.398;2022-11-23T04:03:05;9.40;;;4.07;;
71975;SDS011;60680;52.182;5.398;2022-11-23T04:05:32;7.80;;;3.50;;
71975;SDS011;60680;52.182;5.398;2022-11-23T04:07:58;9.93;;;3.83;;
71975;SDS011;60680;52.182;5.398;2022-11-23T04:10:25;8.82;;;3.40;;
71975;SDS011;60680;52.182;5.398;2022-11-23T04:12:51;10.90;;;3.72;;
71975;SDS011;60680;52.182;5.398;2022-11-23T04:15:18;7.53;;;3.30;;
71975;SDS011;60680;52.182;5.398;2022-11-23T04:17:45;8.43;;;3.40;;
71975;SDS011;60680;52.182;5.398;2022-11-23T04:20:12;7.47;;;3.20;;
71975;SDS011;60680;52.182;5.398;2022-11-23T04:22:38;10.10;;;3.50;;
71975;SDS011;60680;52.182;5.398;2022-11-23T04:25:05;8.80;;;3.25;;
71975;SDS011;60680;52.182;5.398;2022-11-23T04:27:32;8.57;;;3.10;;
71975;SDS011;60680;52.182;5.398;2022-11-23T04:29:58;9.67;;;3.00;;
71975;SDS011;60680;52.182;5.398;2022-11-23T04:32:25;5.80;;;2.72;;
71975;SDS011;60680;52.182;5.398;2022-11-23T04:34:51;9.95;;;3.17;;
71975;SDS011;60680;52.182;5.398;2022-11-23T04:37:18;8.30;;;3.28;;
71975;SDS011;60680;52.182;5.398;2022-11-23T04:39:44;9.75;;;3.30;;
71975;SDS011;60680;52.182;5.398;2022-11-23T04:42:11;9.20;;;3.07;;
71975;SDS011;60680;52.182;5.398;2022-11-23T04:44:37;8.45;;;3.17;;
71975;SDS011;60680;52.182;5.398;2022-11-23T04:47:04;7.57;;;3.40;;
71975;SDS011;60680;52.182;5.398;2022-11-23T04:49:30;6.72;;;2.60;;
71975;SDS011;60680;52.182;5.398;2022-11-23T04:51:57;7.72;;;3.17;;
71975;SDS011;60680;52.182;5.398;2022-11-23T04:54:24;11.10;;;2.77;;
71975;SDS011;60680;52.182;5.398;2022-11-23T04:56:50;10.43;;;2.90;;
71975;SDS011;60680;52.182;5.398;2022-11-23T04:59:19;7.22;;;2.70;;
71975;SDS011;60680;52.182;5.398;2022-11-23T05:01:45;6.82;;;2.70;;
71975;SDS011;60680;52.182;5.398;2022-11-23T05:04:11;11.55;;;2.83;;
71975;SDS011;60680;52.182;5.398;2022-11-23T05:06:43;7.43;;;2.50;;
71975;SDS011;60680;52.182;5.398;2022-11-23T05:09:09;7.35;;;2.80;;
71975;SDS011;60680;52.182;5.398;2022-11-23T05:11:35;5.88;;;2.40;;
71975;SDS011;60680;52.182;5.398;2022-11-23T05:14:02;5.35;;;2.47;;
71975;SDS011;60680;52.182;5.398;2022-11-23T05:16:29;6.72;;;2.15;;
71975;SDS011;60680;52.182;5.398;2022-11-23T05:18:55;7.23;;;2.67;;
71975;SDS011;60680;52.182;5.398;2022-11-23T05:21:21;11.98;;;2.85;;
71975;SDS011;60680;52.182;5.398;2022-11-23T05:23:48;4.65;;;2.33;;
71975;SDS011;60680;52.182;5.398;2022-11-23T05:26:14;8.27;;;2.05;;
71975;SDS011;60680;52.182;5.398;2022-11-23T05:28:41;6.90;;;2.42;;
71975;SDS011;60680;52.182;5.398;2022-11-23T05:31:07;12.40;;;2.90;;
71975;SDS011;60680;52.182;5.398;2022-11-23T05:33:35;8.85;;;2.33;;
71975;SDS011;60680;52.182;5.398;2022-11-23T05:36:01;8.52;;;2.30;;
71975;SDS011;60680;52.182;5.398;2022-11-23T05:38:28;8.38;;;2.10;;
71975;SDS011;60680;52.182;5.398;2022-11-23T05:40:54;6.32;;;2.15;;
71975;SDS011;60680;52.182;5.398;2022-11-23T05:43:21;6.33;;;2.07;;
71975;SDS011;60680;52.182;5.398;2022-11-23T05:45:47;9.98;;;2.55;;
71975;SDS011;60680;52.182;5.398;2022-11-23T05:48:14;5.80;;;2.03;;
71975;SDS011;60680;52.182;5.398;2022-11-23T05:50:40;9.15;;;2.10;;
71975;SDS011;60680;52.182;5.398;2022-11-23T05:53:07;7.45;;;1.95;;
71975;SDS011;60680;52.182;5.398;2022-11-23T05:55:34;5.27;;;1.80;;
71975;SDS011;60680;52.182;5.398;2022-11-23T05:58:00;8.57;;;2.45;;
71975;SDS011;60680;52.182;5.398;2022-11-23T06:00:27;9.88;;;2.97;;
71975;SDS011;60680;52.182;5.398;2022-11-23T06:02:57;7.28;;;2.30;;
71975;SDS011;60680;52.182;5.398;2022-11-23T06:05:25;8.15;;;2.67;;
71975;SDS011;60680;52.182;5.398;2022-11-23T06:07:51;11.07;;;2.80;;
71975;SDS011;60680;52.182;5.398;2022-11-23T06:10:19;9.40;;;3.28;;
71975;SDS011;60680;52.182;5.398;2022-11-23T06:12:45;9.60;;;2.70;;
71975;SDS011;60680;52.182;5.398;2022-11-23T06:15:12;10.23;;;2.88;;
71975;SDS011;60680;52.182;5.398;2022-11-23T06:17:38;7.55;;;2.50;;
71975;SDS011;60680;52.182;5.398;2022-11-23T06:20:04;8.40;;;2.50;;
71975;SDS011;60680;52.182;5.398;2022-11-23T06:22:32;8.95;;;2.60;;
71975;SDS011;60680;52.182;5.398;2022-11-23T06:24:58;6.82;;;2.30;;
71975;SDS011;60680;52.182;5.398;2022-11-23T06:27:24;8.13;;;2.67;;
71975;SDS011;60680;52.182;5.398;2022-11-23T06:29:51;12.88;;;2.72;;
71975;SDS011;60680;52.182;5.398;2022-11-23T06:32:18;9.00;;;2.30;;
71975;SDS011;60680;52.182;5.398;2022-11-23T06:34:44;9.63;;;2.30;;
71975;SDS011;60680;52.182;5.398;2022-11-23T06:37:11;5.68;;;1.95;;
71975;SDS011;60680;52.182;5.398;2022-11-23T06:39:38;7.28;;;2.58;;
71975;SDS011;60680;52.182;5.398;2022-11-23T06:42:05;6.20;;;2.25;;
71975;SDS011;60680;52.182;5.398;2022-11-23T06:44:51;8.23;;;2.10;;
71975;SDS011;60680;52.182;5.398;2022-11-23T06:47:18;9.27;;;1.98;;
71975;SDS011;60680;52.182;5.398;2022-11-23T06:49:51;9.23;;;1.80;;
71975;SDS011;60680;52.182;5.398;2022-11-23T06:52:17;7.72;;;1.50;;
71975;SDS011;60680;52.182;5.398;2022-11-23T06:54:44;5.72;;;1.42;;
71975;SDS011;60680;52.182;5.398;2022-11-23T06:57:10;5.77;;;1.40;;
71975;SDS011;60680;52.182;5.398;2022-11-23T06:59:37;6.45;;;1.70;;
71975;SDS011;60680;52.182;5.398;2022-11-23T07:02:09;6.47;;;1.60;;
71975;SDS011;60680;52.182;5.398;2022-11-23T07:04:36;10.45;;;1.45;;
71975;SDS011;60680;52.182;5.398;2022-11-23T07:07:03;7.18;;;1.40;;
71975;SDS011;60680;52.182;5.398;2022-11-23T07:09:29;7.17;;;1.20;;
71975;SDS011;60680;52.182;5.398;2022-11-23T07:11:56;5.10;;;1.02;;
71975;SDS011;60680;52.182;5.398;2022-11-23T07:14:23;7.38;;;1.20;;
71975;SDS011;60680;52.182;5.398;2022-11-23T07:16:49;8.85;;;1.10;;
71975;SDS011;60680;52.182;5.398;2022-11-23T07:19:16;5.15;;;1.08;;
71975;SDS011;60680;52.182;5.398;2022-11-23T07:21:43;7.03;;;1.30;;
71975;SDS011;60680;52.182;5.398;2022-11-23T07:24:10;6.22;;;1.55;;
71975;SDS011;60680;52.182;5.398;2022-11-23T07:26:37;5.45;;;1.23;;
71975;SDS011;60680;52.182;5.398;2022-11-23T07:29:03;5.82;;;0.85;;
71975;SDS011;60680;52.182;5.398;2022-11-23T07:31:37;7.32;;;1.67;;
71975;SDS011;60680;52.182;5.398;2022-11-23T07:34:04;6.90;;;1.20;;
71975;SDS011;60680;52.182;5.398;2022-11-23T07:36:30;8.52;;;1.40;;
71975;SDS011;60680;52.182;5.398;2022-11-23T07:38:57;9.27;;;1.00;;
71975;SDS011;60680;52.182;5.398;2022-11-23T07:41:23;10.75;;;0.82;;
71975;SDS011;60680;52.182;5.398;2022-11-23T07:43:52;9.35;;;0.82;;
71975;SDS011;60680;52.182;5.398;2022-11-23T07:46:18;7.20;;;1.10;;
71975;SDS011;60680;52.182;5.398;2022-11-23T07:48:45;6.18;;;0.70;;
71975;SDS011;60680;52.182;5.398;2022-11-23T07:51:12;5.90;;;1.05;;
71975;SDS011;60680;52.182;5.398;2022-11-23T07:53:38;9.93;;;1.15;;
71975;SDS011;60680;52.182;5.398;2022-11-23T07:56:08;10.80;;;0.88;;
71975;SDS011;60680;52.182;5.398;2022-11-23T07:58:35;4.60;;;0.60;;
71975;SDS011;60680;52.182;5.398;2022-11-23T08:01:01;7.20;;;0.60;;
71975;SDS011;60680;52.182;5.398;2022-11-23T08:03:28;6.85;;;0.70;;
71975;SDS011;60680;52.182;5.398;2022-11-23T08:05:55;9.43;;;0.80;;
71975;SDS011;60680;52.182;5.398;2022-11-23T08:08:22;4.60;;;1.10;;
71975;SDS011;60680;52.182;5.398;2022-11-23T08:10:48;5.83;;;0.77;;
71975;SDS011;60680;52.182;5.398;2022-11-23T08:13:19;3.55;;;0.57;;
71975;SDS011;60680;52.182;5.398;2022-11-23T08:15:45;3.53;;;0.70;;
71975;SDS011;60680;52.182;5.398;2022-11-23T08:18:19;7.47;;;1.65;;
71975;SDS011;60680;52.182;5.398;2022-11-23T08:20:45;5.80;;;0.60;;
71975;SDS011;60680;52.182;5.398;2022-11-23T08:23:12;4.73;;;0.70;;
71975;SDS011;60680;52.182;5.398;2022-11-23T08:25:39;6.20;;;0.70;;
71975;SDS011;60680;52.182;5.398;2022-11-23T08:28:05;7.07;;;0.93;;
71975;SDS011;60680;52.182;5.398;2022-11-23T08:30:33;5.10;;;0.60;;
71975;SDS011;60680;52.182;5.398;2022-11-23T08:33:03;6.55;;;0.80;;
71975;SDS011;60680;52.182;5.398;2022-11-23T08:35:35;7.57;;;0.60;;
71975;SDS011;60680;52.182;5.398;2022-11-23T08:38:02;8.15;;;0.73;;
71975;SDS011;60680;52.182;5.398;2022-11-23T08:40:30;7.65;;;0.90;;
71975;SDS011;60680;52.182;5.398;2022-11-23T08:42:57;10.25;;;1.25;;
71975;SDS011;60680;52.182;5.398;2022-11-23T08:45:24;8.57;;;0.90;;
71975;SDS011;60680;52.182;5.398;2022-11-23T08:47:50;3.93;;;0.43;;
71975;SDS011;60680;52.182;5.398;2022-11-23T08:50:18;6.45;;;0.80;;
71975;SDS011;60680;52.182;5.398;2022-11-23T08:52:45;8.45;;;0.80;;
71975;SDS011;60680;52.182;5.398;2022-11-23T08:55:12;8.10;;;0.60;;
71975;SDS011;60680;52.182;5.398;2022-11-23T08:57:39;7.70;;;0.63;;
71975;SDS011;60680;52.182;5.398;2022-11-23T09:00:06;7.67;;;0.60;;
71975;SDS011;60680;52.182;5.398;2022-11-23T09:02:33;8.43;;;0.77;;
71975;SDS011;60680;52.182;5.398;2022-11-23T09:05:00;13.82;;;1.80;;
71975;SDS011;60680;52.182;5.398;2022-11-23T09:07:27;11.25;;;1.10;;
71975;SDS011;60680;52.182;5.398;2022-11-23T09:09:54;7.30;;;1.02;;
71975;SDS011;60680;52.182;5.398;2022-11-23T09:12:20;10.47;;;0.73;;
71975;SDS011;60680;52.182;5.398;2022-11-23T09:14:47;6.82;;;0.80;;
71975;SDS011;60680;52.182;5.398;2022-11-23T09:17:13;6.65;;;0.80;;
71975;SDS011;60680;52.182;5.398;2022-11-23T09:19:40;10.55;;;1.00;;
71975;SDS011;60680;52.182;5.398;2022-11-23T09:22:06;7.90;;;0.88;;
71975;SDS011;60680;52.182;5.398;2022-11-23T09:24:33;7.03;;;0.57;;
71975;SDS011;60680;52.182;5.398;2022-11-23T09:27:00;9.25;;;1.00;;
71975;SDS011;60680;52.182;5.398;2022-11-23T09:29:26;8.13;;;1.05;;
71975;SDS011;60680;52.182;5.398;2022-11-23T09:31:53;8.18;;;0.70;;
71975;SDS011;60680;52.182;5.398;2022-11-23T09:34:20;7.85;;;0.75;;
71975;SDS011;60680;52.182;5.398;2022-11-23T09:36:49;6.10;;;0.40;;
71975;SDS011;60680;52.182;5.398;2022-11-23T09:39:16;6.95;;;0.73;;
71975;SDS011;60680;52.182;5.398;2022-11-23T09:52:29;8.30;;;0.93;;
71975;SDS011;60680;52.182;5.398;2022-11-23T09:54:57;7.18;;;0.50;;
71975;SDS011;60680;52.182;5.398;2022-11-23T09:57:28;6.18;;;0.90;;
71975;SDS011;60680;52.182;5.398;2022-11-23T10:00:06;6.38;;;0.70;;
71975;SDS011;60680;52.182;5.398;2022-11-23T10:02:41;5.47;;;0.93;;
71975;SDS011;60680;52.182;5.398;2022-11-23T10:05:09;10.13;;;0.73;;
71975;SDS011;60680;52.182;5.398;2022-11-23T10:07:46;9.02;;;0.65;;
71975;SDS011;60680;52.182;5.398;2022-11-23T10:10:44;12.55;;;0.90;;
71975;SDS011;60680;52.182;5.398;2022-11-23T10:19:04;6.25;;;0.70;;
71975;SDS011;60680;52.182;5.398;2022-11-23T10:21:55;4.10;;;0.50;;
71975;SDS011;60680;52.182;5.398;2022-11-23T10:24:26;8.20;;;0.73;;
71975;SDS011;60680;52.182;5.398;2022-11-23T10:26:59;4.30;;;0.57;;
71975;SDS011;60680;52.182;5.398;2022-11-23T10:29:29;5.27;;;0.97;;
71975;SDS011;60680;52.182;5.398;2022-11-23T10:31:58;4.53;;;0.70;;
71975;SDS011;60680;52.182;5.398;2022-11-23T10:34:34;3.00;;;0.60;;
71975;SDS011;60680;52.182;5.398;2022-11-23T10:37:12;6.80;;;0.63;;
71975;SDS011;60680;52.182;5.398;2022-11-23T10:39:40;6.10;;;0.60;;
71975;SDS011;60680;52.182;5.398;2022-11-23T10:44:45;6.05;;;0.93;;
71975;SDS011;60680;52.182;5.398;2022-11-23T10:50:00;7.15;;;0.50;;
71975;SDS011;60680;52.182;5.398;2022-11-23T10:52:28;5.15;;;0.50;;
71975;SDS011;60680;52.182;5.398;2022-11-23T10:54:57;6.27;;;0.70;;
71975;SDS011;60680;52.182;5.398;2022-11-23T10:59:57;6.63;;;1.00;;
71975;SDS011;60680;52.182;5.398;2022-11-23T11:02:37;6.32;;;0.63;;
71975;SDS011;60680;52.182;5.398;2022-11-23T11:05:51;5.30;;;0.60;;
71975;SDS011;60680;52.182;5.398;2022-11-23T11:08:19;6.60;;;0.80;;
71975;SDS011;60680;52.182;5.398;2022-11-23T11:10:48;8.15;;;0.80;;
71975;SDS011;60680;52.182;5.398;2022-11-23T11:13:38;7.15;;;0.82;;
71975;SDS011;60680;52.182;5.398;2022-11-23T11:18:57;6.50;;;0.90;;
71975;SDS011;60680;52.182;5.398;2022-11-23T11:21:34;6.10;;;0.53;;
71975;SDS011;60680;52.182;5.398;2022-11-23T11:24:11;7.78;;;1.00;;
71975;SDS011;60680;52.182;5.398;2022-11-23T11:26:48;7.22;;;0.80;;
71975;SDS011;60680;52.182;5.398;2022-11-23T11:32:33;6.90;;;1.08;;
71975;SDS011;60680;52.182;5.398;2022-11-23T11:35:12;7.20;;;0.53;;
71975;SDS011;60680;52.182;5.398;2022-11-23T11:37:46;6.40;;;0.95;;
71975;SDS011;60680;52.182;5.398;2022-11-23T11:43:14;2.78;;;0.65;;
71975;SDS011;60680;52.182;5.398;2022-11-23T11:45:55;4.40;;;0.60;;
71975;SDS011;60680;52.182;5.398;2022-11-23T11:48:46;9.17;;;0.80;;
71975;SDS011;60680;52.182;5.398;2022-11-23T11:51:27;10.27;;;0.82;;
71975;SDS011;60680;52.182;5.398;2022-11-23T11:56:59;4.63;;;0.57;;
71975;SDS011;60680;52.182;5.398;2022-11-23T12:02:13;5.23;;;0.73;;
71975;SDS011;60680;52.182;5.398;2022-11-23T12:10:21;6.70;;;0.85;;
71975;SDS011;60680;52.182;5.398;2022-11-23T12:12:53;4.80;;;0.75;;
71975;SDS011;60680;52.182;5.398;2022-11-23T12:15:32;3.17;;;0.70;;
71975;SDS011;60680;52.182;5.398;2022-11-23T12:21:07;5.82;;;0.73;;
71975;SDS011;60680;52.182;5.398;2022-11-23T12:26:25;7.65;;;0.50;;
71975;SDS011;60680;52.182;5.398;2022-11-23T12:31:49;2.88;;;0.40;;
71975;SDS011;60680;52.182;5.398;2022-11-23T12:39:59;4.05;;;0.40;;
71975;SDS011;60680;52.182;5.398;2022-11-23T12:42:40;5.17;;;0.50;;
71975;SDS011;60680;52.182;5.398;2022-11-23T12:50:39;5.47;;;0.50;;
71975;SDS011;60680;52.182;5.398;2022-11-23T12:55:58;3.57;;;0.30;;
71975;SDS011;60680;52.182;5.398;2022-11-23T12:58:36;3.78;;;0.77;;
71975;SDS011;60680;52.182;5.398;2022-11-23T13:01:21;6.60;;;0.47;;
71975;SDS011;60680;52.182;5.398;2022-11-23T13:07:08;5.82;;;0.60;;
71975;SDS011;60680;52.182;5.398;2022-11-23T13:24:00;2.83;;;0.33;;
71975;SDS011;60680;52.182;5.398;2022-11-23T13:26:27;7.38;;;0.50;;
71975;SDS011;60680;52.182;5.398;2022-11-23T13:28:57;3.75;;;0.40;;
71975;SDS011;60680;52.182;5.398;2022-11-23T13:31:30;7.38;;;0.40;;
71975;SDS011;60680;52.182;5.398;2022-11-23T13:33:59;4.72;;;0.30;;
71975;SDS011;60680;52.182;5.398;2022-11-23T13:42:09;2.67;;;0.50;;
71975;SDS011;60680;52.182;5.398;2022-11-23T13:44:36;3.47;;;0.35;;
71975;SDS011;60680;52.182;5.398;2022-11-23T13:49:34;2.97;;;0.27;;
71975;SDS011;60680;52.182;5.398;2022-11-23T13:52:20;4.68;;;0.40;;
71975;SDS011;60680;52.182;5.398;2022-11-23T14:09:10;4.13;;;0.28;;
71975;SDS011;60680;52.182;5.398;2022-11-23T14:11:57;2.88;;;0.32;;
71975;SDS011;60680;52.182;5.398;2022-11-23T14:14:34;5.38;;;0.38;;
71975;SDS011;60680;52.182;5.398;2022-11-23T14:17:10;3.97;;;0.50;;
71975;SDS011;60680;52.182;5.398;2022-11-23T14:22:58;3.25;;;0.30;;
71975;SDS011;60680;52.182;5.398;2022-11-23T14:37:07;4.97;;;0.50;;
71975;SDS011;60680;52.182;5.398;2022-11-23T14:39:51;2.95;;;0.30;;
71975;SDS011;60680;52.182;5.398;2022-11-23T14:42:36;4.72;;;0.75;;
71975;SDS011;60680;52.182;5.398;2022-11-23T14:45:27;2.50;;;0.43;;
71975;SDS011;60680;52.182;5.398;2022-11-23T14:47:56;3.38;;;0.20;;
71975;SDS011;60680;52.182;5.398;2022-11-23T14:50:26;3.22;;;0.40;;
71975;SDS011;60680;52.182;5.398;2022-11-23T14:55:29;2.17;;;0.60;;
71975;SDS011;60680;52.182;5.398;2022-11-23T14:57:57;4.70;;;0.50;;
71975;SDS011;60680;52.182;5.398;2022-11-23T15:00:39;2.08;;;0.40;;
71975;SDS011;60680;52.182;5.398;2022-11-23T15:03:14;2.05;;;0.30;;
71975;SDS011;60680;52.182;5.398;2022-11-23T15:06:15;1.88;;;0.28;;
71975;SDS011;60680;52.182;5.398;2022-11-23T15:08:48;4.70;;;0.40;;
71975;SDS011;60680;52.182;5.398;2022-11-23T15:11:24;2.20;;;0.40;;
71975;SDS011;60680;52.182;5.398;2022-11-23T15:13:54;4.22;;;0.68;;
71975;SDS011;60680;52.182;5.398;2022-11-23T15:16:27;3.50;;;0.50;;
71975;SDS011;60680;52.182;5.398;2022-11-23T15:18:54;6.13;;;0.60;;
71975;SDS011;60680;52.182;5.398;2022-11-23T15:21:21;3.65;;;0.32;;
71975;SDS011;60680;52.182;5.398;2022-11-23T15:23:53;2.23;;;0.40;;
71975;SDS011;60680;52.182;5.398;2022-11-23T15:26:23;3.00;;;0.45;;
71975;SDS011;60680;52.182;5.398;2022-11-23T15:32:03;3.78;;;0.52;;
71975;SDS011;60680;52.182;5.398;2022-11-23T15:35:02;2.53;;;0.40;;
71975;SDS011;60680;52.182;5.398;2022-11-23T15:37:39;2.10;;;0.60;;
71975;SDS011;60680;52.182;5.398;2022-11-23T15:40:12;3.05;;;0.55;;
71975;SDS011;60680;52.182;5.398;2022-11-23T15:42:47;3.50;;;0.68;;
71975;SDS011;60680;52.182;5.398;2022-11-23T15:48:32;2.65;;;0.30;;
71975;SDS011;60680;52.182;5.398;2022-11-23T15:51:04;1.90;;;0.50;;
71975;SDS011;60680;52.182;5.398;2022-11-23T15:53:49;3.30;;;0.65;;
71975;SDS011;60680;52.182;5.398;2022-11-23T15:56:25;3.33;;;0.40;;
71975;SDS011;60680;52.182;5.398;2022-11-23T15:58:55;3.78;;;0.60;;
71975;SDS011;60680;52.182;5.398;2022-11-23T16:01:23;2.35;;;0.40;;
71975;SDS011;60680;52.182;5.398;2022-11-23T16:03:51;2.00;;;0.50;;
71975;SDS011;60680;52.182;5.398;2022-11-23T16:06:36;2.22;;;0.60;;
71975;SDS011;60680;52.182;5.398;2022-11-23T16:09:31;3.58;;;1.00;;
71975;SDS011;60680;52.182;5.398;2022-11-23T16:14:49;3.53;;;0.93;;
71975;SDS011;60680;52.182;5.398;2022-11-23T16:17:20;2.27;;;0.50;;
71975;SDS011;60680;52.182;5.398;2022-11-23T16:19:50;1.38;;;0.35;;
71975;SDS011;60680;52.182;5.398;2022-11-23T16:22:39;3.95;;;0.52;;
71975;SDS011;60680;52.182;5.398;2022-11-23T16:28:14;3.33;;;0.63;;
71975;SDS011;60680;52.182;5.398;2022-11-23T16:30:43;2.27;;;0.70;;
71975;SDS011;60680;52.182;5.398;2022-11-23T16:33:12;4.55;;;0.90;;
71975;SDS011;60680;52.182;5.398;2022-11-23T16:35:44;3.70;;;0.70;;
71975;SDS011;60680;52.182;5.398;2022-11-23T16:38:11;3.58;;;0.77;;
71975;SDS011;60680;52.182;5.398;2022-11-23T16:40:43;4.75;;;0.90;;
71975;SDS011;60680;52.182;5.398;2022-11-23T16:43:39;5.00;;;1.10;;
71975;SDS011;60680;52.182;5.398;2022-11-23T16:46:07;3.40;;;0.90;;
71975;SDS011;60680;52.182;5.398;2022-11-23T16:48:35;3.15;;;0.90;;
71975;SDS011;60680;52.182;5.398;2022-11-23T16:51:08;4.53;;;1.23;;
71975;SDS011;60680;52.182;5.398;2022-11-23T16:53:36;5.57;;;1.27;;
71975;SDS011;60680;52.182;5.398;2022-11-23T16:56:23;3.60;;;1.30;;
71975;SDS011;60680;52.182;5.398;2022-11-23T16:58:51;3.30;;;1.70;;
71975;SDS011;60680;52.182;5.398;2022-11-23T17:01:20;4.43;;;1.63;;
71975;SDS011;60680;52.182;5.398;2022-11-23T17:03:49;4.95;;;1.45;;
71975;SDS011;60680;52.182;5.398;2022-11-23T17:06:16;3.17;;;1.60;;
71975;SDS011;60680;52.182;5.398;2022-11-23T17:08:44;2.87;;;1.50;;
71975;SDS011;60680;52.182;5.398;2022-11-23T17:11:12;5.20;;;1.70;;
71975;SDS011;60680;52.182;5.398;2022-11-23T17:13:40;4.97;;;2.28;;
71975;SDS011;60680;52.182;5.398;2022-11-23T17:16:09;5.15;;;2.17;;
71975;SDS011;60680;52.182;5.398;2022-11-23T17:18:40;3.17;;;1.85;;
71975;SDS011;60680;52.182;5.398;2022-11-23T17:21:07;4.43;;;2.17;;